New Orleans, LA (70115)

1:26 AM CDT on June 02, 2015 (GMT -0500)
Freret St above Brottworks | | Change Station
CLOSE
Current Station
Personal Weather Station
Location: New Orleans, LA
Elevation: 48 ft
Nearby Weather Stations

Elev 48 ft 29.93 °N, 90.11 °W | Updated 2 seconds ago

Partly Cloudy
Partly Cloudy
75.7 °F
Feels Like 76 °F
N
0.0
Wind Variable Wind from North
Gusts 0.0 mph

Today
High -- | Low -- °F
--% Chance of Precip.
Yesterday
High -- | Low -- °F
Precip. -- in
5:59 AM 7:57 PM
Full, 100% visible
Pressure 30.00 in
Visibility 10.0 miles
Clouds Scattered Clouds 7000 ft
Heat Index 76 °F
Dew Point 72 °F
Humidity 88%
Rainfall 0.00 in
Snow Depth Not available.
UV 0 out of 12
Pollen 2.40 out of 12
Air Quality Not available.
Flu Activity Sporadic
METAR KNBG 020555Z AUTO 00000KT 10SM SCT070 22/21 A3000 RMK AO2 SLP157 60011 T02170211 10250 20211 403000194 58001 $

More Conditions Fewer Conditions

Pressure 30.00 in
Visibility 10.0 miles
Clouds Scattered Clouds 7000 ft
Heat Index 76 °F
Dew Point 72 °F
Humidity 88%
Rainfall 0.00 in
Snow Depth Not available.
UV 0 out of 12
Pollen 2.40 out of 12
Air Quality Not available.
Flu Activity Sporadic
METAR KNBG 020555Z AUTO 00000KT 10SM SCT070 22/21 A3000 RMK AO2 SLP157 60011 T02170211 10250 20211 403000194 58001 $

More Conditions Fewer Conditions

10-Day Weather Forecast

Almanac

Astronomy

Jun. 02, 2015 Rise Set
Actual Time
Civil Twilight
Nautical Twilight
Astronomical Twilight
Moon
Length of Visible Light
Length of Day
Tomorrow will be .
, % of the Moon is Illuminated

Today's Extremes

State Highs State Lows

Community

WunderPhotos

Upload Photos

1,825,923 photos uploaded!

WunderBlogs® & News

Nearby

Air Quality

  Air Quality AQ Index Pollutant
Not available.

Snow Depth

Station Depth Elevation

Earthquake Activity

City Distance Mag. Time & Date
Minimum magnitude displayed is 2.5.

Coastal Water Temperatures

Place Temperature

Stations

Nearby Weather Stations

Station Location Temp. Windchill Dew Point Humidity Wind Precip. Elev Updated Type